Time;durP1;ratioP1;P1;durP2;ratioP2;P2;SDS_P1;SDS_P2;PMS_P1;PMS_P2;Temp;Humidity;BMP_temperature;BMP_pressure;BME280_temperature;BME280_humidity;BME280_pressure;Samples;Min_cycle;Max_cycle;Signal;HPM_P1;HPM_P2
2022/04/27 00:00:03;;;;;;;4.38;1.50;;;4.90;99.90;;;;;;5063238;28;20044;-71
2022/04/27 00:02:30;;;;;;;3.10;1.70;;;4.90;99.90;;;;;;5047517;28;20064;-72
2022/04/27 00:04:57;;;;;;;2.67;1.70;;;4.80;99.90;;;;;;5059426;28;20063;-72
2022/04/27 00:07:22;;;;;;;4.03;1.85;;;4.80;99.90;;;;;;5063864;28;20090;-71
2022/04/27 00:09:48;;;;;;;2.30;1.33;;;4.80;99.90;;;;;;5064805;28;20033;-72
2022/04/27 00:12:14;;;;;;;7.63;1.58;;;4.80;99.90;;;;;;5063933;28;20449;-71
2022/04/27 00:14:39;;;;;;;2.20;1.40;;;4.80;99.90;;;;;;5063902;28;20696;-72
2022/04/27 00:17:05;;;;;;;4.32;1.65;;;4.80;99.90;;;;;;5064840;28;20036;-72
2022/04/27 00:19:31;;;;;;;4.30;1.67;;;4.80;99.90;;;;;;5064142;28;20051;-72
2022/04/27 00:21:56;;;;;;;3.33;1.45;;;4.70;99.90;;;;;;5063734;28;20631;-71
2022/04/27 00:24:22;;;;;;;6.03;2.25;;;4.70;99.90;;;;;;5065687;28;20564;-72
2022/04/27 00:26:48;;;;;;;3.30;1.35;;;4.70;99.90;;;;;;5043552;28;20048;-72
2022/04/27 00:29:13;;;;;;;3.60;1.55;;;4.60;99.90;;;;;;5062426;28;20523;-72
2022/04/27 00:31:39;;;;;;;3.17;1.35;;;4.60;99.90;;;;;;5064522;28;20564;-72
2022/04/27 00:34:04;;;;;;;3.65;1.75;;;4.60;99.90;;;;;;5065934;28;20067;-72
2022/04/27 00:36:31;;;;;;;3.08;1.52;;;4.60;99.90;;;;;;5044533;28;20580;-71
2022/04/27 00:38:58;;;;;;;3.22;1.45;;;4.60;99.90;;;;;;5064955;28;20123;-72
2022/04/27 00:41:23;;;;;;;2.80;1.65;;;4.40;99.90;;;;;;5064824;28;20028;-72
2022/04/27 00:43:49;;;;;;;3.20;1.52;;;4.40;99.90;;;;;;5046696;28;20571;-72
2022/04/27 00:46:15;;;;;;;2.88;1.38;;;4.30;99.90;;;;;;5061281;28;20466;-72
2022/04/27 00:48:41;;;;;;;3.30;1.50;;;4.40;99.90;;;;;;5065457;28;20044;-72
2022/04/27 00:51:10;;;;;;;6.07;1.67;;;4.30;99.90;;;;;;5059123;28;20044;-72
2022/04/27 00:53:37;;;;;;;3.20;1.63;;;4.30;99.90;;;;;;5065463;28;20071;-72
2022/04/27 00:56:03;;;;;;;3.78;1.77;;;4.20;99.90;;;;;;5044969;28;20040;-72
2022/04/27 00:58:29;;;;;;;3.63;1.27;;;4.10;99.90;;;;;;5060282;28;20046;-72
2022/04/27 01:00:55;;;;;;;2.42;1.33;;;4.00;99.90;;;;;;5066323;28;20041;-72
2022/04/27 01:03:22;;;;;;;2.33;1.63;;;4.00;99.90;;;;;;5068748;28;20563;-72
2022/04/27 01:05:48;;;;;;;2.47;1.38;;;4.00;99.90;;;;;;5049008;28;20044;-72
2022/04/27 01:08:18;;;;;;;2.47;1.52;;;4.00;99.90;;;;;;5051146;28;20429;-72
2022/04/27 01:10:46;;;;;;;2.30;1.63;;;4.00;99.90;;;;;;5050587;28;20482;-72
2022/04/27 01:13:12;;;;;;;2.92;1.60;;;4.00;99.90;;;;;;5047673;28;20155;-72
2022/04/27 01:15:38;;;;;;;2.40;1.42;;;4.00;99.90;;;;;;5065551;28;20394;-72
2022/04/27 01:18:06;;;;;;;2.92;2.10;;;4.00;99.90;;;;;;5048753;28;20036;-72
2022/04/27 01:20:40;;;;;;;3.60;2.00;;;4.10;99.90;;;;;;5051503;28;20076;-72
2022/04/27 01:23:06;;;;;;;5.13;2.20;;;4.10;99.90;;;;;;5065808;28;20071;-72
2022/04/27 01:25:54;;;;;;;2.95;1.83;;;4.10;99.90;;;;;;5065535;28;20051;-72
2022/04/27 01:28:23;;;;;;;4.05;1.58;;;4.20;99.90;;;;;;5047417;28;20040;-72
2022/04/27 01:31:01;;;;;;;4.78;1.98;;;4.30;99.90;;;;;;5066871;28;20052;-72
2022/04/27 01:33:27;;;;;;;4.60;1.75;;;4.30;99.90;;;;;;5051129;28;20032;-72
2022/04/27 01:35:54;;;;;;;4.25;1.50;;;4.30;99.90;;;;;;5051055;28;20044;-72
2022/04/27 01:38:20;;;;;;;3.47;1.83;;;4.30;99.90;;;;;;5066518;28;20049;-72
2022/04/27 01:40:47;;;;;;;2.03;1.60;;;4.40;99.90;;;;;;5046583;28;20274;-72
2022/04/27 01:43:16;;;;;;;3.15;2.08;;;4.40;99.90;;;;;;5066934;28;20036;-72
2022/04/27 01:45:43;;;;;;;6.28;2.10;;;4.40;99.90;;;;;;5067624;28;20139;-72
2022/04/27 01:48:10;;;;;;;4.13;2.30;;;4.40;99.90;;;;;;5051114;28;20291;-72
2022/04/27 01:50:36;;;;;;;3.22;1.50;;;4.50;99.90;;;;;;5065997;28;20546;-72
2022/04/27 01:55:45;;;;;;;2.08;1.50;;;4.50;99.90;;;;;;5065493;28;20127;-72
2022/04/27 01:58:11;;;;;;;2.60;1.45;;;4.40;99.90;;;;;;5066677;28;20187;-72
2022/04/27 02:00:38;;;;;;;3.45;1.55;;;4.40;99.90;;;;;;5047460;28;20127;-72
2022/04/27 02:03:03;;;;;;;1.80;0.90;;;4.40;99.90;;;;;;5050447;28;20048;-72
2022/04/27 02:05:29;;;;;;;2.30;1.30;;;4.40;99.90;;;;;;5067704;28;20044;-72
2022/04/27 02:07:54;;;;;;;3.17;1.55;;;4.40;99.90;;;;;;5067567;28;20047;-72
2022/04/27 02:10:20;;;;;;;4.38;1.65;;;4.40;99.90;;;;;;5066596;28;20029;-72
2022/04/27 02:12:46;;;;;;;4.80;1.40;;;4.50;99.90;;;;;;5066098;28;20063;-72
2022/04/27 02:15:12;;;;;;;2.85;1.75;;;4.50;99.90;;;;;;5063918;28;20162;-72
2022/04/27 02:17:37;;;;;;;4.25;2.17;;;4.50;99.90;;;;;;5066979;28;20128;-72
2022/04/27 02:20:04;;;;;;;3.42;1.45;;;4.50;99.90;;;;;;5065819;28;20036;-72
2022/04/27 02:22:32;;;;;;;2.03;1.40;;;4.50;99.90;;;;;;5067482;28;20510;-72
2022/04/27 02:24:58;;;;;;;3.97;2.08;;;4.60;99.90;;;;;;5066458;28;20044;-72
2022/04/27 02:27:24;;;;;;;3.00;1.25;;;4.60;99.90;;;;;;5050416;28;20756;-72
2022/04/27 02:29:49;;;;;;;3.55;1.75;;;4.60;99.90;;;;;;5064775;28;20043;-72
2022/04/27 02:32:15;;;;;;;5.30;1.80;;;4.60;99.90;;;;;;5048954;28;20040;-72
2022/04/27 02:34:42;;;;;;;4.40;2.03;;;4.70;99.90;;;;;;5044025;28;20078;-72
2022/04/27 02:37:07;;;;;;;3.45;1.52;;;4.70;99.90;;;;;;5066739;28;20150;-72
2022/04/27 02:39:33;;;;;;;3.10;1.80;;;4.70;99.90;;;;;;5064855;28;20063;-72
2022/04/27 02:41:59;;;;;;;3.30;1.63;;;4.70;99.90;;;;;;5065130;28;20041;-72
2022/04/27 02:44:24;;;;;;;3.40;1.48;;;4.80;99.90;;;;;;5063749;28;20036;-72
2022/04/27 02:46:50;;;;;;;2.17;1.27;;;4.80;99.90;;;;;;5066319;28;20042;-72
2022/04/27 02:52:00;;;;;;;2.50;1.17;;;4.90;99.90;;;;;;5065127;28;20135;-72
2022/04/27 02:54:26;;;;;;;4.05;1.70;;;4.90;99.90;;;;;;5065032;28;20116;-72
2022/04/27 02:56:51;;;;;;;2.35;1.42;;;4.90;99.90;;;;;;5049040;28;20379;-72
2022/04/27 02:59:17;;;;;;;2.33;1.48;;;5.00;99.90;;;;;;5046894;28;20040;-72
2022/04/27 03:01:43;;;;;;;3.38;1.30;;;4.90;99.90;;;;;;5066406;28;20512;-72
2022/04/27 03:04:09;;;;;;;2.88;1.58;;;4.90;99.90;;;;;;5065117;28;20064;-72
2022/04/27 03:06:35;;;;;;;2.80;1.60;;;4.90;99.90;;;;;;5049194;28;20052;-72
2022/04/27 03:09:01;;;;;;;4.38;1.90;;;5.00;99.90;;;;;;5047920;28;20044;-72
2022/04/27 03:11:26;;;;;;;3.15;1.55;;;5.00;99.90;;;;;;5065622;28;20036;-72
2022/04/27 03:13:52;;;;;;;3.13;1.60;;;5.00;99.90;;;;;;5065175;28;20248;-72
2022/04/27 03:16:18;;;;;;;3.72;1.70;;;5.00;99.90;;;;;;5063835;28;20108;-72
2022/04/27 03:18:43;;;;;;;4.07;2.03;;;5.00;99.90;;;;;;5060305;28;20111;-72
2022/04/27 03:21:10;;;;;;;2.08;1.27;;;5.10;99.90;;;;;;5064691;28;20395;-72
2022/04/27 03:23:36;;;;;;;2.20;1.40;;;5.10;99.90;;;;;;5064050;28;20595;-72
2022/04/27 03:26:02;;;;;;;3.55;1.85;;;5.10;99.90;;;;;;5049791;28;20613;-72
2022/04/27 03:28:27;;;;;;;6.65;1.55;;;5.10;99.90;;;;;;5063778;28;20040;-72
2022/04/27 03:30:53;;;;;;;2.95;1.65;;;5.20;99.90;;;;;;5048916;28;20390;-72
2022/04/27 03:33:19;;;;;;;3.38;1.70;;;5.20;99.90;;;;;;5064334;28;20046;-72
2022/04/27 03:35:45;;;;;;;6.63;1.60;;;5.20;99.90;;;;;;5064203;28;20086;-72
2022/04/27 03:38:10;;;;;;;4.13;1.35;;;5.20;99.90;;;;;;5045922;28;20052;-72
2022/04/27 03:40:37;;;;;;;1.80;1.30;;;5.20;99.90;;;;;;5062923;28;20110;-72
2022/04/27 03:43:03;;;;;;;3.03;1.75;;;5.30;99.90;;;;;;5046903;28;20493;-72
2022/04/27 03:45:29;;;;;;;2.40;1.48;;;5.30;99.90;;;;;;5049436;28;20712;-72
2022/04/27 03:47:55;;;;;;;2.90;1.52;;;5.30;99.90;;;;;;5064225;28;20036;-72
2022/04/27 03:50:20;;;;;;;3.40;1.65;;;5.40;99.90;;;;;;5064021;28;20127;-72
2022/04/27 03:52:47;;;;;;;3.70;2.03;;;5.30;99.90;;;;;;5062630;28;20040;-72
2022/04/27 03:55:13;;;;;;;3.15;1.52;;;5.40;99.90;;;;;;5064925;28;20040;-72
2022/04/27 03:57:38;;;;;;;2.92;1.50;;;5.40;99.90;;;;;;5048075;28;20037;-72
2022/04/27 04:00:06;;;;;;;2.83;1.38;;;5.40;99.90;;;;;;5062994;28;20035;-72
2022/04/27 04:02:32;;;;;;;2.25;1.40;;;5.40;99.90;;;;;;5063770;28;20033;-72
2022/04/27 04:04:57;;;;;;;3.00;1.70;;;5.40;99.90;;;;;;5048904;28;20039;-72
2022/04/27 04:07:23;;;;;;;2.60;1.48;;;5.40;99.90;;;;;;5047591;28;20123;-72
2022/04/27 04:09:48;;;;;;;4.13;2.08;;;5.50;99.90;;;;;;5064395;28;20047;-72
2022/04/27 04:12:14;;;;;;;5.80;2.28;;;5.50;99.90;;;;;;5061044;28;20102;-72
2022/04/27 04:14:40;;;;;;;3.17;1.48;;;5.50;99.90;;;;;;5043945;28;20036;-72
2022/04/27 04:17:06;;;;;;;3.50;1.80;;;5.50;99.90;;;;;;5063121;28;20041;-72
2022/04/27 04:19:34;;;;;;;4.35;1.50;;;5.50;99.90;;;;;;5063036;28;20052;-72
2022/04/27 04:22:00;;;;;;;4.15;2.42;;;5.50;99.90;;;;;;5063479;28;20044;-72
2022/04/27 04:24:26;;;;;;;3.33;1.55;;;5.50;99.90;;;;;;5063188;28;20044;-72
2022/04/27 04:29:37;;;;;;;3.53;1.90;;;5.50;99.90;;;;;;5061476;28;20055;-72
2022/04/27 04:32:03;;;;;;;3.22;1.95;;;5.60;99.90;;;;;;5063489;28;20036;-72
2022/04/27 04:34:29;;;;;;;5.13;2.00;;;5.60;99.90;;;;;;5061937;28;20494;-72
2022/04/27 04:36:54;;;;;;;4.93;2.65;;;5.60;99.90;;;;;;5048787;28;20090;-72
2022/04/27 04:39:20;;;;;;;2.58;1.52;;;5.60;99.90;;;;;;5047265;28;20379;-72
2022/04/27 04:41:46;;;;;;;3.72;1.73;;;5.60;99.90;;;;;;5048601;28;20044;-72
2022/04/27 04:44:11;;;;;;;3.75;1.70;;;5.60;99.90;;;;;;5059526;28;20286;-72
2022/04/27 04:46:37;;;;;;;3.15;1.70;;;5.70;99.90;;;;;;5044791;28;20124;-72
2022/04/27 04:49:03;;;;;;;2.85;1.60;;;5.70;99.90;;;;;;5058465;28;20102;-72
2022/04/27 04:51:29;;;;;;;3.05;1.90;;;5.70;99.90;;;;;;5062027;28;20437;-72
2022/04/27 04:53:54;;;;;;;3.05;1.98;;;5.70;99.90;;;;;;5062795;28;20141;-72
2022/04/27 04:56:20;;;;;;;5.03;2.10;;;5.70;99.90;;;;;;5062201;28;20034;-72
2022/04/27 04:58:46;;;;;;;2.60;1.58;;;5.70;99.90;;;;;;5062456;28;20036;-72
2022/04/27 05:01:12;;;;;;;5.07;2.10;;;5.70;99.90;;;;;;5064482;28;20033;-72
2022/04/27 05:03:38;;;;;;;3.33;2.05;;;5.80;99.90;;;;;;5047486;28;20036;-72
2022/04/27 05:06:04;;;;;;;4.30;2.15;;;5.80;99.90;;;;;;5063751;28;20736;-72
2022/04/27 05:08:30;;;;;;;3.53;2.10;;;5.80;99.90;;;;;;5063124;28;20520;-72
2022/04/27 05:10:56;;;;;;;5.47;2.30;;;5.90;99.90;;;;;;5064076;28;20040;-72
2022/04/27 05:13:22;;;;;;;5.35;2.33;;;5.90;99.90;;;;;;5062475;28;20086;-72
2022/04/27 05:15:48;;;;;;;5.43;2.58;;;5.90;99.90;;;;;;5064223;28;20040;-72
2022/04/27 05:18:14;;;;;;;3.33;2.03;;;6.00;99.90;;;;;;5064120;28;20045;-73
2022/04/27 05:20:40;;;;;;;6.38;2.05;;;6.00;99.90;;;;;;5047009;28;20098;-72
2022/04/27 05:23:06;;;;;;;3.70;1.95;;;6.00;99.90;;;;;;5060975;28;20044;-72
2022/04/27 05:25:34;;;;;;;3.83;1.52;;;6.00;99.90;;;;;;5061964;28;20052;-72
2022/04/27 05:28:02;;;;;;;4.43;2.00;;;6.10;99.90;;;;;;5063715;28;20052;-73
2022/04/27 05:33:12;;;;;;;4.47;2.35;;;6.10;99.90;;;;;;5061977;28;20040;-73
2022/04/27 05:35:42;;;;;;;4.43;1.95;;;6.10;99.90;;;;;;5064320;28;20043;-73
2022/04/27 05:38:09;;;;;;;4.30;1.83;;;6.20;99.90;;;;;;5064127;28;20529;-73
2022/04/27 05:40:35;;;;;;;4.32;1.77;;;6.30;99.90;;;;;;5063518;28;20125;-73
2022/04/27 05:43:05;;;;;;;4.63;2.03;;;6.20;99.90;;;;;;5064427;28;20114;-73
2022/04/27 05:45:32;;;;;;;7.15;2.50;;;6.20;99.90;;;;;;5035092;28;20041;-73
2022/04/27 05:48:01;;;;;;;5.57;2.28;;;6.30;99.90;;;;;;5067361;28;20453;-73
2022/04/27 05:50:27;;;;;;;4.25;2.38;;;6.30;99.90;;;;;;5047453;28;20037;-73
2022/04/27 05:52:56;;;;;;;3.40;2.03;;;6.30;99.90;;;;;;5066565;28;20403;-73
2022/04/27 05:55:22;;;;;;;4.03;2.10;;;6.30;99.90;;;;;;5082318;28;20047;-73
2022/04/27 05:57:48;;;;;;;5.93;2.90;;;6.30;99.90;;;;;;5051297;28;20055;-73
2022/04/27 06:00:15;;;;;;;3.70;2.22;;;6.30;99.90;;;;;;5045630;28;20446;-73
2022/04/27 06:02:40;;;;;;;6.68;2.60;;;6.40;99.90;;;;;;5067065;28;20051;-73
2022/04/27 06:05:08;;;;;;;3.78;2.00;;;6.40;99.90;;;;;;5067196;28;20041;-73
2022/04/27 06:07:35;;;;;;;3.55;1.77;;;6.50;99.90;;;;;;5067388;28;20098;-73
2022/04/27 06:10:07;;;;;;;5.00;2.33;;;6.50;99.90;;;;;;5063625;28;20658;-73
2022/04/27 06:12:37;;;;;;;5.30;2.03;;;6.50;99.90;;;;;;5066796;28;20059;-73
2022/04/27 06:15:11;;;;;;;3.20;1.80;;;6.50;99.90;;;;;;5062462;28;20037;-73
2022/04/27 06:17:37;;;;;;;3.72;1.90;;;6.60;99.90;;;;;;5064746;28;20045;-73
2022/04/27 06:20:03;;;;;;;3.75;2.10;;;6.60;99.90;;;;;;5066047;28;20051;-73
2022/04/27 06:22:28;;;;;;;3.60;1.95;;;6.70;99.90;;;;;;5067018;28;20037;-73
2022/04/27 06:24:54;;;;;;;5.90;1.65;;;6.70;99.90;;;;;;5064567;28;20037;-73
2022/04/27 06:27:20;;;;;;;3.15;1.90;;;6.80;99.90;;;;;;5066154;28;20482;-73
2022/04/27 06:29:46;;;;;;;2.97;1.38;;;6.80;99.90;;;;;;5064780;28;20124;-73
2022/04/27 06:32:11;;;;;;;3.28;2.03;;;6.80;99.90;;;;;;5065770;28;20509;-73
2022/04/27 06:34:37;;;;;;;5.75;2.05;;;6.90;99.90;;;;;;5065630;28;20079;-73
2022/04/27 06:37:03;;;;;;;3.78;2.05;;;6.90;99.90;;;;;;5066487;28;20063;-73
2022/04/27 06:39:28;;;;;;;6.07;2.17;;;6.90;99.90;;;;;;5049990;28;20397;-73
2022/04/27 06:41:54;;;;;;;5.30;2.15;;;7.00;99.90;;;;;;5067465;28;20044;-73
2022/04/27 06:44:19;;;;;;;4.43;1.90;;;7.00;99.90;;;;;;5048266;28;20048;-73
2022/04/27 06:46:45;;;;;;;5.10;2.10;;;7.00;99.90;;;;;;5065769;28;20163;-73
2022/04/27 06:49:10;;;;;;;4.75;2.15;;;7.00;99.90;;;;;;5062960;28;20098;-73
2022/04/27 06:51:36;;;;;;;4.15;1.70;;;7.10;99.90;;;;;;5041133;28;20036;-73
2022/04/27 06:54:01;;;;;;;5.10;2.20;;;7.10;99.90;;;;;;5062729;28;20615;-75
2022/04/27 06:56:27;;;;;;;4.32;2.15;;;7.20;99.90;;;;;;5064051;28;20121;-73
2022/04/27 06:58:53;;;;;;;2.80;1.60;;;7.20;99.90;;;;;;5064384;28;20075;-73
2022/04/27 07:01:18;;;;;;;3.78;2.17;;;7.30;99.90;;;;;;5061991;28;20139;-73
2022/04/27 07:03:45;;;;;;;3.17;1.90;;;7.30;99.90;;;;;;5046953;28;20029;-72
2022/04/27 07:06:11;;;;;;;3.00;1.63;;;7.30;99.90;;;;;;5063976;28;20509;-73
2022/04/27 07:08:37;;;;;;;2.92;1.60;;;7.40;99.90;;;;;;5064314;28;20044;-73
2022/04/27 07:11:03;;;;;;;5.10;1.90;;;7.40;99.90;;;;;;5059195;28;20040;-73
2022/04/27 07:13:29;;;;;;;7.20;1.92;;;7.50;99.90;;;;;;5055674;28;20512;-73
2022/04/27 07:16:00;;;;;;;3.60;1.77;;;7.50;99.90;;;;;;5061210;28;20063;-72
2022/04/27 07:18:29;;;;;;;4.05;1.63;;;7.50;99.90;;;;;;5047029;28;20044;-72
2022/04/27 07:20:55;;;;;;;3.35;1.55;;;7.60;99.90;;;;;;5045409;28;20033;-72
2022/04/27 07:23:21;;;;;;;5.65;1.95;;;7.60;99.90;;;;;;5066182;28;20059;-73
2022/04/27 07:25:46;;;;;;;3.25;1.95;;;7.70;99.90;;;;;;5065750;28;20132;-72
2022/04/27 07:28:12;;;;;;;4.85;1.98;;;7.70;99.90;;;;;;5061948;28;20090;-72
2022/04/27 07:30:37;;;;;;;5.45;2.60;;;7.80;99.90;;;;;;5061359;28;20039;-72
2022/04/27 07:33:04;;;;;;;7.35;2.88;;;7.80;99.90;;;;;;5062820;28;20273;-72
2022/04/27 07:35:29;;;;;;;6.05;2.20;;;7.90;99.90;;;;;;5065865;28;20124;-72
2022/04/27 07:37:55;;;;;;;2.78;1.60;;;7.90;99.90;;;;;;5045437;28;20146;-72
2022/04/27 07:40:21;;;;;;;2.85;1.30;;;8.00;99.90;;;;;;5061588;28;20090;-72
2022/04/27 07:42:48;;;;;;;4.35;2.13;;;8.00;99.90;;;;;;5046097;28;20036;-72
2022/04/27 07:45:14;;;;;;;3.20;1.40;;;8.10;99.90;;;;;;5057910;28;20051;-72
2022/04/27 07:47:45;;;;;;;7.47;1.67;;;8.10;99.90;;;;;;5044330;28;20032;-72
2022/04/27 07:50:14;;;;;;;2.20;1.13;;;8.20;99.90;;;;;;5061161;28;20036;-72
2022/04/27 07:52:40;;;;;;;2.00;1.17;;;8.30;99.90;;;;;;5061341;28;20123;-72
2022/04/27 07:55:06;;;;;;;2.30;1.20;;;8.30;99.90;;;;;;5061018;28;20135;-73
2022/04/27 07:57:32;;;;;;;2.33;1.10;;;8.30;99.90;;;;;;5061051;28;20033;-72
2022/04/27 07:59:59;;;;;;;2.03;0.82;;;8.40;99.90;;;;;;5055942;28;20098;-73
2022/04/27 08:02:24;;;;;;;1.70;0.70;;;8.50;99.90;;;;;;5060398;28;20047;-72
2022/04/27 08:04:50;;;;;;;1.23;0.57;;;8.60;99.90;;;;;;5057192;28;20040;-73
2022/04/27 08:07:16;;;;;;;0.93;0.30;;;8.60;99.90;;;;;;5062089;28;20099;-73
2022/04/27 08:09:41;;;;;;;1.35;0.93;;;8.60;99.90;;;;;;5061023;28;20066;-72
2022/04/27 08:12:07;;;;;;;1.65;0.77;;;8.70;99.90;;;;;;5045091;28;20047;-73
2022/04/27 08:14:33;;;;;;;1.67;0.80;;;8.70;99.90;;;;;;5043190;28;20091;-73
2022/04/27 08:17:01;;;;;;;1.00;0.70;;;8.70;99.90;;;;;;5059421;28;20398;-73
2022/04/27 08:19:27;;;;;;;0.95;0.50;;;8.80;99.90;;;;;;5060611;28;20516;-73
2022/04/27 08:21:54;;;;;;;3.03;0.77;;;8.90;99.90;;;;;;5058630;28;20071;-73
2022/04/27 08:24:24;;;;;;;3.70;1.13;;;8.90;99.90;;;;;;5061500;28;20043;-73
2022/04/27 08:26:51;;;;;;;1.15;0.57;;;9.00;99.90;;;;;;5058536;28;20036;-73
2022/04/27 08:29:17;;;;;;;1.45;0.60;;;9.10;99.90;;;;;;5055620;28;20037;-73
2022/04/27 08:31:42;;;;;;;0.70;0.50;;;9.20;99.90;;;;;;5060177;28;20025;-73
2022/04/27 08:34:08;;;;;;;0.90;0.50;;;9.30;99.90;;;;;;5059315;28;20096;-73
2022/04/27 08:36:34;;;;;;;2.10;0.70;;;9.30;99.90;;;;;;5058583;28;20040;-73
2022/04/27 08:39:00;;;;;;;0.90;0.60;;;9.40;99.90;;;;;;5055086;28;20048;-73
2022/04/27 08:41:30;;;;;;;1.48;0.90;;;9.30;99.40;;;;;;5052378;28;20500;-73
2022/04/27 08:43:56;;;;;;;1.60;0.50;;;9.30;98.90;;;;;;5069105;28;20048;-73
2022/04/27 08:46:24;;;;;;;1.10;0.60;;;9.30;98.80;;;;;;5045080;28;20386;-73
2022/04/27 08:48:50;;;;;;;0.75;0.45;;;9.30;99.10;;;;;;5059482;28;20105;-72
2022/04/27 08:51:16;;;;;;;3.50;0.90;;;9.40;99.30;;;;;;5057381;28;20101;-73
2022/04/27 08:53:42;;;;;;;1.02;0.57;;;9.40;99.20;;;;;;5041533;28;20036;-73
2022/04/27 08:56:08;;;;;;;0.80;0.55;;;9.40;97.50;;;;;;5060034;28;20040;-72
2022/04/27 08:58:34;;;;;;;1.58;0.90;;;9.40;97.50;;;;;;5058298;28;20482;-72
2022/04/27 09:01:00;;;;;;;2.95;0.75;;;9.40;97.00;;;;;;5060496;28;20112;-73
2022/04/27 09:03:28;;;;;;;1.40;0.75;;;9.40;96.80;;;;;;5043813;28;20043;-73
2022/04/27 09:05:59;;;;;;;1.20;0.60;;;9.50;97.10;;;;;;5043660;28;20370;-73
2022/04/27 09:08:45;;;;;;;1.67;0.55;;;9.60;96.60;;;;;;5059183;28;20049;-73
2022/04/27 09:11:20;;;;;;;1.50;0.98;;;9.60;97.30;;;;;;5041411;28;20102;-75
2022/04/27 09:14:00;;;;;;;1.25;0.43;;;9.80;97.20;;;;;;5053984;28;20207;-72
2022/04/27 09:20:46;;;;;;;1.10;0.63;;;9.90;97.10;;;;;;5044365;28;20082;-72
2022/04/27 09:22:04;;;;;;;2.22;0.80;;;10.10;96.90;;;;;;5063592;28;20064;-73
2022/04/27 09:24:51;;;;;;;1.42;0.63;;;10.20;95.90;;;;;;5048282;28;20032;-72
2022/04/27 09:27:21;;;;;;;1.63;0.77;;;10.20;94.30;;;;;;5061844;28;20044;-73
2022/04/27 09:30:07;;;;;;;1.95;0.82;;;10.30;95.90;;;;;;5056528;28;20470;-73
2022/04/27 09:32:34;;;;;;;2.45;0.90;;;10.30;95.00;;;;;;5045135;28;20538;-73
2022/04/27 09:35:02;;;;;;;6.30;1.13;;;10.40;96.30;;;;;;5063851;28;20121;-73
2022/04/27 09:37:30;;;;;;;1.15;0.63;;;10.40;96.10;;;;;;5064487;28;20070;-73
2022/04/27 09:40:07;;;;;;;1.70;0.90;;;10.40;95.40;;;;;;5064061;28;20254;-73
2022/04/27 09:42:35;;;;;;;2.45;0.68;;;10.30;94.70;;;;;;5060637;28;20040;-73
2022/04/27 09:45:20;;;;;;;1.02;0.50;;;10.40;95.60;;;;;;5061753;28;20127;-73
2022/04/27 09:48:01;;;;;;;0.68;0.40;;;10.40;93.70;;;;;;5056498;28;20040;-73
2022/04/27 09:50:46;;;;;;;1.30;0.63;;;10.40;95.00;;;;;;5045806;28;20040;-73
2022/04/27 09:53:12;;;;;;;0.88;0.50;;;10.40;94.40;;;;;;5060401;28;20498;-73
2022/04/27 09:55:48;;;;;;;1.60;0.55;;;10.50;95.20;;;;;;5044502;28;20041;-73
2022/04/27 09:58:18;;;;;;;;;;;10.50;91.00;;;;;;5062640;28;20044;-73
2022/04/27 10:00:45;;;;;;;2.05;0.60;;;10.40;80.50;;;;;;5041708;28;20867;-74
2022/04/27 10:03:18;;;;;;;1.48;0.70;;;10.40;92.10;;;;;;5045084;28;20037;-72
2022/04/27 10:05:45;;;;;;;3.10;0.60;;;10.50;92.60;;;;;;5057844;28;20037;-72
2022/04/27 10:08:12;;;;;;;2.20;0.70;;;10.50;93.30;;;;;;5059854;28;20055;-72
2022/04/27 10:10:42;;;;;;;2.50;0.77;;;10.50;93.50;;;;;;5060509;28;20040;-72
2022/04/27 10:13:13;;;;;;;1.95;0.80;;;10.60;93.00;;;;;;5056130;28;20051;-72
2022/04/27 10:15:44;;;;;;;0.70;0.50;;;10.60;92.40;;;;;;5038794;28;20029;-72
2022/04/27 10:18:20;;;;;;;2.10;0.50;;;10.60;92.70;;;;;;5038258;28;20047;-72
2022/04/27 10:20:48;;;;;;;1.30;0.75;;;10.70;87.70;;;;;;5059186;28;20047;-72
2022/04/27 10:23:28;;;;;;;2.17;0.90;;;10.70;92.10;;;;;;5061017;28;20045;-72
2022/04/27 10:26:17;;;;;;;1.13;0.55;;;10.70;91.40;;;;;;5059075;28;20532;-72
2022/04/27 10:28:50;;;;;;;0.98;0.60;;;10.70;88.20;;;;;;5057201;28;20040;-72
2022/04/27 10:31:46;;;;;;;1.10;0.63;;;10.70;90.60;;;;;;5057810;28;20039;-72
2022/04/27 10:34:21;;;;;;;1.52;0.80;;;10.70;90.80;;;;;;5039417;28;20040;-72
2022/04/27 10:36:50;;;;;;;1.73;0.70;;;10.70;91.80;;;;;;5057990;28;20087;-72
2022/04/27 10:39:19;;;;;;;1.15;0.70;;;10.80;92.80;;;;;;5058671;28;20052;-72
2022/04/27 10:42:03;;;;;;;1.88;0.75;;;10.90;92.70;;;;;;5061966;28;20053;-72
2022/04/27 10:44:47;;;;;;;0.52;0.40;;;10.90;91.40;;;;;;5057700;28;20339;-72
2022/04/27 10:47:18;;;;;;;0.95;0.55;;;11.00;90.80;;;;;;5060812;28;20062;-72
2022/04/27 10:49:48;;;;;;;3.85;0.68;;;11.00;91.40;;;;;;5058490;28;20052;-72
2022/04/27 10:52:14;;;;;;;0.77;0.63;;;11.00;90.80;;;;;;5058874;28;20435;-72
2022/04/27 10:54:41;;;;;;;1.67;0.85;;;11.00;91.00;;;;;;5060745;28;20033;-72
2022/04/27 10:57:16;;;;;;;1.67;0.57;;;11.00;90.50;;;;;;5059747;28;20194;-72
2022/04/27 11:00:02;;;;;;;1.27;0.70;;;11.00;90.10;;;;;;5057102;28;20497;-72
2022/04/27 11:02:38;;;;;;;1.80;0.75;;;11.00;91.20;;;;;;5041898;28;20401;-72
2022/04/27 11:05:24;;;;;;;;;;;11.10;90.20;;;;;;5059229;28;20044;-72
2022/04/27 11:08:34;;;;;;;2.47;0.90;;;11.10;84.70;;;;;;5063158;28;19927;-72
2022/04/27 11:11:06;;;;;;;4.97;0.68;;;11.10;84.30;;;;;;5062503;28;20062;-72
2022/04/27 11:13:32;;;;;;;2.50;0.90;;;11.10;89.20;;;;;;5055344;28;20352;-72
2022/04/27 11:16:11;;;;;;;2.67;0.85;;;11.10;89.00;;;;;;5058489;28;20398;-73
2022/04/27 11:18:51;;;;;;;2.78;0.90;;;11.10;85.00;;;;;;5057824;28;20036;-71
2022/04/27 11:21:19;;;;;;;1.38;0.88;;;11.10;85.90;;;;;;5060675;28;20051;-72
2022/04/27 11:23:45;;;;;;;1.88;0.95;;;11.10;89.10;;;;;;5061250;28;20379;-72
2022/04/27 11:26:11;;;;;;;1.30;0.80;;;11.10;88.70;;;;;;5058793;28;20083;-72
2022/04/27 11:28:39;;;;;;;0.98;0.70;;;11.10;88.70;;;;;;5058790;28;20119;-72
2022/04/27 11:31:06;;;;;;;3.38;1.33;;;11.10;88.20;;;;;;5041101;28;20120;-72
2022/04/27 11:33:34;;;;;;;1.17;0.82;;;11.10;87.90;;;;;;5042491;28;20045;-72
2022/04/27 11:35:59;;;;;;;1.27;0.82;;;11.10;87.70;;;;;;5041136;28;20043;-72
2022/04/27 11:38:37;;;;;;;1.70;0.80;;;11.10;87.90;;;;;;5060968;28;20044;-72
2022/04/27 11:41:03;;;;;;;2.42;1.13;;;11.10;87.70;;;;;;5058864;28;20082;-72
2022/04/27 11:43:33;;;;;;;2.00;1.10;;;11.20;89.50;;;;;;5037912;28;20127;-72
2022/04/27 11:45:59;;;;;;;1.80;0.90;;;11.30;89.00;;;;;;5058422;28;21525;-72
2022/04/27 11:48:29;;;;;;;2.65;1.20;;;11.40;86.40;;;;;;5061586;28;20490;-72
2022/04/27 11:50:57;;;;;;;1.15;0.73;;;11.30;84.70;;;;;;5061444;28;20494;-72
2022/04/27 11:53:23;;;;;;;3.60;1.10;;;11.30;84.00;;;;;;5059904;28;20496;-72
2022/04/27 11:55:50;;;;;;;2.15;0.98;;;11.20;85.10;;;;;;5058038;28;20040;-72
2022/04/27 11:58:22;;;;;;;1.40;0.90;;;11.20;85.60;;;;;;5059391;28;20275;-72
2022/04/27 12:00:51;;;;;;;1.33;0.65;;;11.30;85.60;;;;;;5059747;28;20058;-72
2022/04/27 12:03:17;;;;;;;3.08;1.30;;;11.30;87.30;;;;;;5060463;28;20037;-72
2022/04/27 12:05:51;;;;;;;4.75;1.23;;;11.30;88.20;;;;;;5040561;28;20340;-72
2022/04/27 12:08:22;;;;;;;3.05;1.15;;;11.40;87.10;;;;;;5043385;28;20038;-71
2022/04/27 12:10:49;;;;;;;2.85;1.02;;;11.40;88.00;;;;;;5058991;28;20036;-72
2022/04/27 12:13:16;;;;;;;1.35;0.90;;;11.30;87.50;;;;;;5054481;28;20054;-71
2022/04/27 12:15:49;;;;;;;1.52;0.85;;;11.30;87.80;;;;;;5054196;28;20578;-72
2022/04/27 12:18:15;;;;;;;1.80;0.90;;;11.20;86.70;;;;;;5059880;28;20048;-72
2022/04/27 12:20:42;;;;;;;5.15;1.02;;;11.20;88.00;;;;;;5040994;28;20110;-72
2022/04/27 12:23:24;;;;;;;3.53;1.88;;;11.10;88.20;;;;;;5060073;28;20048;-72
2022/04/27 12:25:54;;;;;;;2.60;0.80;;;11.20;88.50;;;;;;5057250;28;20051;-72
2022/04/27 12:28:32;;;;;;;4.78;1.10;;;11.20;88.40;;;;;;5056201;28;20484;-72
2022/04/27 12:31:05;;;;;;;2.03;0.93;;;11.20;86.70;;;;;;5059828;28;20493;-72
2022/04/27 12:33:42;;;;;;;1.40;0.70;;;11.10;82.70;;;;;;5056620;28;20141;-70
2022/04/27 12:39:05;;;;;;;2.67;1.00;;;11.10;87.30;;;;;;5059084;28;20075;-71
2022/04/27 12:41:37;;;;;;;4.00;0.93;;;11.20;85.60;;;;;;5058937;28;20072;-71
2022/04/27 12:44:08;;;;;;;1.25;0.68;;;11.20;87.60;;;;;;5035211;28;20044;-71
2022/04/27 12:46:35;;;;;;;1.30;0.65;;;11.20;87.30;;;;;;5037598;28;20047;-72
2022/04/27 12:49:02;;;;;;;2.42;1.25;;;11.30;88.50;;;;;;5059777;28;20037;-71
2022/04/27 12:51:29;;;;;;;3.67;0.82;;;11.30;87.60;;;;;;5060053;28;20047;-71
2022/04/27 12:53:57;;;;;;;4.13;1.00;;;11.30;87.30;;;;;;5059284;28;20064;-71
2022/04/27 12:56:31;;;;;;;2.67;1.13;;;11.40;87.90;;;;;;5044039;28;20040;-71
2022/04/27 12:59:08;;;;;;;1.25;0.70;;;11.50;86.30;;;;;;5058873;28;20074;-72
2022/04/27 13:01:33;;;;;;;2.58;1.00;;;11.50;85.90;;;;;;5058698;28;20047;-71
2022/04/27 13:04:00;;;;;;;2.33;0.77;;;11.60;87.00;;;;;;5043398;28;20044;-71
2022/04/27 13:06:26;;;;;;;1.52;0.77;;;11.60;84.70;;;;;;5058490;28;20660;-71
2022/04/27 13:08:52;;;;;;;2.13;0.95;;;11.60;86.20;;;;;;5057720;28;20072;-72
2022/04/27 13:14:04;;;;;;;1.65;0.85;;;11.60;86.90;;;;;;5072479;28;20040;-72
2022/04/27 13:16:30;;;;;;;1.70;0.80;;;11.70;86.00;;;;;;5059633;28;20040;-71
2022/04/27 13:18:56;;;;;;;1.27;0.73;;;11.70;85.80;;;;;;5058918;28;20099;-71